Time;durP1;ratioP1;P1;durP2;ratioP2;P2;SDS_P1;SDS_P2;PMS_P1;PMS_P2;Temp;Humidity;BMP_temperature;BMP_pressure;BME280_temperature;BME280_humidity;BME280_pressure;Samples;Min_cycle;Max_cycle;Signal;HPM_P1;HPM_P2
2022/01/10 00:00:25;;;;;;;21.08;12.50;;;;;;;;;;4618722;28;10000872;-72
2022/01/10 00:02:53;;;;;;;19.80;11.63;;;;;;;;;;4959045;28;20244;-73
2022/01/10 00:05:19;;;;;;;17.30;10.68;;;;;;;;;;4962326;28;20104;-72
2022/01/10 00:07:45;;;;;;;20.33;11.02;;;;;;;;;;4965335;28;20143;-72
2022/01/10 00:10:11;;;;;;;19.27;10.82;;;;;;;;;;4964499;28;20035;-72
2022/01/10 00:12:37;;;;;;;16.20;10.57;;;;;;;;;;4962716;28;20026;-72
2022/01/10 00:15:04;;;;;;;15.52;9.88;;;;;;;;;;4960084;28;20026;-73
2022/01/10 00:17:30;;;;;;;16.27;10.18;;;;;;;;;;4961635;28;20462;-72
2022/01/10 00:19:56;;;;;;;18.40;10.30;;;;;;;;;;4966938;28;20035;-73
2022/01/10 00:22:23;;;;;;;19.27;10.80;;;;;;;;;;4960218;28;20042;-73
2022/01/10 00:24:50;;;;;;;17.73;10.13;;;;;;;;;;4962273;28;22686;-72
2022/01/10 00:27:16;;;;;;;18.27;10.25;;;;;;;;;;4965745;28;20050;-72
2022/01/10 00:29:42;;;;;;;22.20;10.63;;;;;;;;;;4959593;28;20026;-73
2022/01/10 00:32:08;;;;;;;20.42;11.35;;;;;;;;;;4953730;28;20055;-72
2022/01/10 00:34:35;;;;;;;21.50;12.50;;;;;;;;;;4960383;28;20062;-72
2022/01/10 00:37:01;;;;;;;21.77;11.32;;;;;;;;;;4959490;28;20042;-72
2022/01/10 00:39:27;;;;;;;19.55;10.82;;;;;;;;;;4957081;28;20035;-72
2022/01/10 00:41:56;;;;;;;19.15;10.77;;;;;;;;;;4961423;28;20817;-73
2022/01/10 00:44:25;;;;;;;20.55;11.15;;;;;;;;;;4963016;28;20042;-73
2022/01/10 00:46:52;;;;;;;16.63;9.60;;;;;;;;;;4963383;28;20046;-73
2022/01/10 00:49:17;;;;;;;14.82;9.60;;;;;;;;;;4959933;28;20030;-73
2022/01/10 00:51:43;;;;;;;15.15;9.57;;;;;;;;;;4958301;28;20404;-73
2022/01/10 00:54:09;;;;;;;15.45;9.48;;;;;;;;;;4964384;28;20073;-73
2022/01/10 00:56:35;;;;;;;15.75;9.73;;;;;;;;;;4966336;28;20038;-73
2022/01/10 00:59:01;;;;;;;18.95;9.27;;;;;;;;;;4962040;28;20038;-72
2022/01/10 01:01:27;;;;;;;17.00;9.75;;;;;;;;;;4965187;28;20034;-73
2022/01/10 01:03:53;;;;;;;16.05;9.63;;;;;;;;;;4959079;28;20019;-73
2022/01/10 01:06:19;;;;;;;15.70;9.50;;;;;;;;;;4962074;28;20023;-73
2022/01/10 01:08:46;;;;;;;16.25;8.80;;;;;;;;;;4965674;28;20050;-73
2022/01/10 01:13:57;;;;;;;16.85;9.57;;;;;;;;;;4956459;28;20034;-73
2022/01/10 01:24:31;;;;;;;17.30;10.77;;;;;;;;;;4959230;28;20061;-73
2022/01/10 01:26:57;;;;;;;17.85;10.10;;;;;;;;;;4960299;28;20061;-73
2022/01/10 01:29:24;;;;;;;17.58;11.02;;;;;;;;;;4962287;28;20050;-73
2022/01/10 01:31:51;;;;;;;24.02;11.40;;;;;;;;;;4965874;28;20074;-73
2022/01/10 01:34:18;;;;;;;21.05;11.48;;;;;;;;;;4959536;28;20756;-72
2022/01/10 01:36:47;;;;;;;21.27;12.00;;;;;;;;;;4958847;28;20035;-73
2022/01/10 01:39:20;;;;;;;19.90;11.73;;;;;;;;;;4955950;28;20464;-73
2022/01/10 01:41:46;;;;;;;18.95;11.00;;;;;;;;;;4957649;28;20069;-73
2022/01/10 01:44:13;;;;;;;21.23;11.85;;;;;;;;;;4966168;28;20031;-73
2022/01/10 01:46:39;;;;;;;17.77;11.32;;;;;;;;;;4966644;28;20027;-73
2022/01/10 01:49:07;;;;;;;20.15;11.65;;;;;;;;;;4959561;28;20034;-72
2022/01/10 01:51:33;;;;;;;20.30;11.07;;;;;;;;;;4960212;28;20037;-73
2022/01/10 01:53:59;;;;;;;21.27;11.73;;;;;;;;;;4959558;28;20031;-72
2022/01/10 01:56:25;;;;;;;20.38;11.65;;;;;;;;;;4965693;28;20034;-72
2022/01/10 01:58:53;;;;;;;22.05;12.13;;;;;;;;;;4960080;28;20043;-72
2022/01/10 02:01:19;;;;;;;23.08;12.70;;;;;;;;;;4962792;28;20106;-72
2022/01/10 02:03:45;;;;;;;21.77;12.13;;;;;;;;;;4962595;28;20031;-72
2022/01/10 02:06:11;;;;;;;22.45;13.13;;;;;;;;;;4957157;28;20376;-73
2022/01/10 02:08:39;;;;;;;21.00;12.15;;;;;;;;;;4962529;28;20059;-73
2022/01/10 02:11:09;;;;;;;20.65;12.10;;;;;;;;;;4954460;28;20039;-73
2022/01/10 02:13:35;;;;;;;26.00;12.63;;;;;;;;;;4956725;28;20027;-73
2022/01/10 02:16:04;;;;;;;22.38;12.80;;;;;;;;;;4950994;28;20097;-72
2022/01/10 02:18:30;;;;;;;19.42;11.93;;;;;;;;;;4955095;28;20555;-72
2022/01/10 02:21:00;;;;;;;22.05;12.70;;;;;;;;;;4959410;28;20073;-73
2022/01/10 02:23:26;;;;;;;18.42;11.38;;;;;;;;;;4955876;28;20027;-72
2022/01/10 02:25:52;;;;;;;20.52;12.43;;;;;;;;;;4959928;28;20027;-72
2022/01/10 02:28:18;;;;;;;22.30;12.98;;;;;;;;;;4960135;28;20023;-72
2022/01/10 02:30:44;;;;;;;23.50;11.82;;;;;;;;;;4964726;28;20475;-72
2022/01/10 02:33:10;;;;;;;21.27;12.15;;;;;;;;;;4952097;28;20039;-72
2022/01/10 02:35:48;;;;;;;17.98;11.55;;;;;;;;;;4957028;28;20093;-72
2022/01/10 02:38:14;;;;;;;23.58;12.60;;;;;;;;;;4964646;28;20042;-72
2022/01/10 02:40:40;;;;;;;19.92;12.18;;;;;;;;;;4968257;28;20030;-72
2022/01/10 02:43:07;;;;;;;18.92;11.98;;;;;;;;;;4960123;28;20027;-72
2022/01/10 02:45:33;;;;;;;18.92;10.93;;;;;;;;;;4957408;28;20035;-72
2022/01/10 02:47:59;;;;;;;21.90;11.80;;;;;;;;;;4956201;28;20090;-73
2022/01/10 02:50:26;;;;;;;18.73;11.45;;;;;;;;;;4965522;28;20450;-72
2022/01/10 02:52:52;;;;;;;24.05;11.57;;;;;;;;;;4960930;28;20034;-72
2022/01/10 02:55:18;;;;;;;20.23;12.05;;;;;;;;;;4963722;28;20038;-72
2022/01/10 02:57:44;;;;;;;18.90;11.63;;;;;;;;;;4966528;28;20034;-72
2022/01/10 03:00:12;;;;;;;16.70;10.50;;;;;;;;;;4966082;28;20114;-73
2022/01/10 03:02:38;;;;;;;20.40;12.00;;;;;;;;;;4958821;28;20031;-72
2022/01/10 03:05:05;;;;;;;23.35;12.48;;;;;;;;;;4958820;28;20037;-73
2022/01/10 03:07:32;;;;;;;20.70;12.05;;;;;;;;;;4963375;28;20078;-73
2022/01/10 03:09:59;;;;;;;22.58;11.98;;;;;;;;;;4966667;28;20396;-73
2022/01/10 03:12:25;;;;;;;21.35;11.70;;;;;;;;;;4963879;28;20852;-72
2022/01/10 03:14:51;;;;;;;19.13;11.50;;;;;;;;;;4967250;28;20050;-72
2022/01/10 03:17:17;;;;;;;24.60;11.82;;;;;;;;;;4963996;28;20034;-73
2022/01/10 03:19:44;;;;;;;23.85;12.20;;;;;;;;;;4964465;28;20023;-72
2022/01/10 03:22:10;;;;;;;21.88;11.77;;;;;;;;;;4956181;28;20396;-72
2022/01/10 03:24:36;;;;;;;19.85;11.75;;;;;;;;;;4962883;28;20110;-72
2022/01/10 03:27:03;;;;;;;18.25;10.63;;;;;;;;;;4960455;28;20031;-73
2022/01/10 03:29:29;;;;;;;16.38;10.48;;;;;;;;;;4962982;28;20046;-73
2022/01/10 03:31:55;;;;;;;17.58;10.00;;;;;;;;;;4960566;28;20030;-72
2022/01/10 03:34:21;;;;;;;19.85;10.27;;;;;;;;;;4966445;28;20038;-72
2022/01/10 03:36:47;;;;;;;16.75;10.45;;;;;;;;;;4960558;28;20038;-73
2022/01/10 03:39:13;;;;;;;23.85;11.68;;;;;;;;;;4956378;28;20043;-72
2022/01/10 03:41:39;;;;;;;18.33;11.32;;;;;;;;;;4955285;28;20503;-72
2022/01/10 03:44:06;;;;;;;21.48;11.18;;;;;;;;;;4961514;28;20093;-73
2022/01/10 03:46:33;;;;;;;20.45;11.75;;;;;;;;;;4961161;28;20035;-72
2022/01/10 03:48:59;;;;;;;22.08;11.85;;;;;;;;;;4959548;28;20043;-72
2022/01/10 03:51:25;;;;;;;21.80;11.35;;;;;;;;;;4962261;28;20450;-72
2022/01/10 03:53:51;;;;;;;20.73;12.32;;;;;;;;;;4967721;28;20030;-73
2022/01/10 03:56:17;;;;;;;21.92;12.00;;;;;;;;;;4955224;28;20034;-72
2022/01/10 03:58:43;;;;;;;22.10;11.73;;;;;;;;;;4961598;28;20031;-72
2022/01/10 04:01:09;;;;;;;20.55;12.13;;;;;;;;;;4965369;28;20110;-72
2022/01/10 04:03:37;;;;;;;23.83;12.48;;;;;;;;;;4967741;28;20034;-73
2022/01/10 04:06:03;;;;;;;21.90;12.07;;;;;;;;;;4962644;28;20032;-72
2022/01/10 04:08:29;;;;;;;20.17;12.00;;;;;;;;;;4967875;28;20458;-73
2022/01/10 04:10:55;;;;;;;18.48;11.80;;;;;;;;;;4952777;28;20034;-73
2022/01/10 04:13:23;;;;;;;26.17;13.32;;;;;;;;;;4963352;28;20042;-72
2022/01/10 04:15:49;;;;;;;23.52;11.57;;;;;;;;;;4962069;28;20435;-72
2022/01/10 04:18:15;;;;;;;20.73;12.32;;;;;;;;;;4965443;28;20065;-73
2022/01/10 04:20:42;;;;;;;24.50;12.15;;;;;;;;;;4966234;28;20029;-72
2022/01/10 04:23:08;;;;;;;22.48;11.68;;;;;;;;;;4964376;28;20110;-72
2022/01/10 04:25:34;;;;;;;21.65;11.65;;;;;;;;;;4963342;28;20117;-73
2022/01/10 04:28:00;;;;;;;21.80;12.75;;;;;;;;;;4966566;28;20031;-73
2022/01/10 04:30:26;;;;;;;22.13;12.40;;;;;;;;;;4959234;28;20090;-73
2022/01/10 04:32:52;;;;;;;21.20;11.45;;;;;;;;;;4957260;28;20066;-72
2022/01/10 04:35:18;;;;;;;21.10;11.23;;;;;;;;;;4958532;28;20109;-73
2022/01/10 04:37:44;;;;;;;20.27;11.90;;;;;;;;;;4962108;28;20141;-73
2022/01/10 04:40:10;;;;;;;21.15;11.88;;;;;;;;;;4967331;28;20027;-73
2022/01/10 04:42:37;;;;;;;25.83;12.35;;;;;;;;;;4955385;28;20118;-72
2022/01/10 04:45:03;;;;;;;23.48;11.98;;;;;;;;;;4959597;28;20043;-72
2022/01/10 04:47:29;;;;;;;23.50;12.90;;;;;;;;;;4966659;28;20031;-72
2022/01/10 04:52:28;;;;;;;22.77;12.75;;;;;;;;;;4965921;28;20034;-72
2022/01/10 04:54:54;;;;;;;23.33;12.80;;;;;;;;;;4954473;28;20274;-72
2022/01/10 04:57:20;;;;;;;21.75;12.25;;;;;;;;;;4959647;28;20038;-72
2022/01/10 04:59:46;;;;;;;21.90;12.68;;;;;;;;;;4960909;28;20041;-72
2022/01/10 05:02:12;;;;;;;21.42;11.93;;;;;;;;;;4956535;28;20027;-72
2022/01/10 05:04:38;;;;;;;22.77;13.13;;;;;;;;;;4961182;28;20079;-72
2022/01/10 05:07:04;;;;;;;21.50;12.85;;;;;;;;;;4961703;28;20035;-72
2022/01/10 05:09:30;;;;;;;19.92;12.45;;;;;;;;;;4960066;28;20086;-72
2022/01/10 05:11:56;;;;;;;24.20;13.40;;;;;;;;;;4964339;28;20042;-72
2022/01/10 05:14:22;;;;;;;24.27;13.63;;;;;;;;;;4961912;28;20767;-72
2022/01/10 05:16:49;;;;;;;32.65;15.60;;;;;;;;;;4955791;28;20672;-71
2022/01/10 05:19:15;;;;;;;29.15;16.23;;;;;;;;;;4959913;28;20051;-72
2022/01/10 05:21:41;;;;;;;32.15;18.63;;;;;;;;;;4961003;28;20057;-72
2022/01/10 05:24:07;;;;;;;33.00;18.38;;;;;;;;;;4962219;28;20472;-72
2022/01/10 05:26:33;;;;;;;33.45;16.83;;;;;;;;;;4962976;28;20054;-71
2022/01/10 05:29:01;;;;;;;27.02;15.52;;;;;;;;;;4958482;28;20030;-72
2022/01/10 05:31:27;;;;;;;24.70;15.18;;;;;;;;;;4962849;28;20054;-72
2022/01/10 05:33:53;;;;;;;26.80;14.30;;;;;;;;;;4956946;28;20303;-72
2022/01/10 05:36:19;;;;;;;25.33;13.98;;;;;;;;;;4958689;28;20061;-72
2022/01/10 05:38:45;;;;;;;26.30;14.90;;;;;;;;;;4950272;28;20125;-72
2022/01/10 05:41:11;;;;;;;22.92;13.60;;;;;;;;;;4953332;28;20027;-72
2022/01/10 05:43:38;;;;;;;22.27;13.65;;;;;;;;;;4962222;28;20734;-72
2022/01/10 05:46:07;;;;;;;27.58;15.77;;;;;;;;;;4964379;28;20122;-72
2022/01/10 05:48:34;;;;;;;30.67;17.63;;;;;;;;;;4963088;28;20093;-72
2022/01/10 05:51:00;;;;;;;29.20;16.33;;;;;;;;;;4956619;28;20039;-72
2022/01/10 05:53:26;;;;;;;26.88;16.10;;;;;;;;;;4964007;28;20034;-72
2022/01/10 05:55:52;;;;;;;26.33;15.95;;;;;;;;;;4962343;28;20038;-72
2022/01/10 05:58:18;;;;;;;26.20;14.65;;;;;;;;;;4958641;28;20031;-72
2022/01/10 06:00:45;;;;;;;26.80;14.05;;;;;;;;;;4955730;28;20032;-72
2022/01/10 06:03:12;;;;;;;31.05;15.80;;;;;;;;;;4956570;28;20026;-72
2022/01/10 06:05:38;;;;;;;33.42;20.00;;;;;;;;;;4959549;28;20372;-73
2022/01/10 06:08:05;;;;;;;33.83;19.65;;;;;;;;;;4955918;28;20342;-72
2022/01/10 06:10:32;;;;;;;33.15;19.30;;;;;;;;;;4957956;28;20030;-72
2022/01/10 06:12:59;;;;;;;30.85;19.60;;;;;;;;;;4961349;28;20090;-72
2022/01/10 06:15:25;;;;;;;36.78;18.40;;;;;;;;;;4963445;28;20030;-72
2022/01/10 06:17:51;;;;;;;27.08;16.42;;;;;;;;;;4961708;28;20039;-72
2022/01/10 06:20:18;;;;;;;33.47;18.15;;;;;;;;;;4616634;28;10000028;-72
2022/01/10 06:22:44;;;;;;;30.63;16.48;;;;;;;;;;4965335;28;20031;-72
2022/01/10 06:25:12;;;;;;;32.88;17.20;;;;;;;;;;4967560;28;20505;-72
2022/01/10 06:27:38;;;;;;;27.90;16.02;;;;;;;;;;4956104;28;20020;-72
2022/01/10 06:30:05;;;;;;;27.75;16.38;;;;;;;;;;4963269;28;20534;-72
2022/01/10 06:32:31;;;;;;;24.92;14.90;;;;;;;;;;4959038;28;20035;-72
2022/01/10 06:34:57;;;;;;;22.98;14.80;;;;;;;;;;4955553;28;20082;-72
2022/01/10 06:37:24;;;;;;;28.27;15.32;;;;;;;;;;4960315;28;20031;-72
2022/01/10 06:39:50;;;;;;;31.00;16.77;;;;;;;;;;4967229;28;20494;-71
2022/01/10 06:42:16;;;;;;;27.42;15.40;;;;;;;;;;4959403;28;20501;-71
2022/01/10 06:44:42;;;;;;;31.67;16.42;;;;;;;;;;4956445;28;20028;-72
2022/01/10 06:47:08;;;;;;;25.65;14.63;;;;;;;;;;4968754;28;20153;-71
2022/01/10 06:49:34;;;;;;;25.65;14.85;;;;;;;;;;4962662;28;20791;-71
2022/01/10 06:52:00;;;;;;;26.30;15.35;;;;;;;;;;4963672;28;20030;-72
2022/01/10 06:54:26;;;;;;;31.38;16.67;;;;;;;;;;4957560;28;20998;-71
2022/01/10 06:56:52;;;;;;;28.73;16.08;;;;;;;;;;4958404;28;20498;-71
2022/01/10 06:59:19;;;;;;;27.00;15.95;;;;;;;;;;4957972;28;20055;-72
2022/01/10 07:01:46;;;;;;;24.17;15.63;;;;;;;;;;4958443;28;20407;-71
2022/01/10 07:04:12;;;;;;;27.10;16.35;;;;;;;;;;4959369;28;20486;-70
2022/01/10 07:06:42;;;;;;;25.88;14.57;;;;;;;;;;4959524;28;20034;-71
2022/01/10 07:09:08;;;;;;;27.75;15.82;;;;;;;;;;4965945;28;20162;-72
2022/01/10 07:11:34;;;;;;;27.67;15.82;;;;;;;;;;4964546;28;20034;-72
2022/01/10 07:14:00;;;;;;;35.47;20.20;;;;;;;;;;4962987;28;20459;-72
2022/01/10 07:16:27;;;;;;;35.63;19.85;;;;;;;;;;4959090;28;20101;-71
2022/01/10 07:18:53;;;;;;;32.13;18.35;;;;;;;;;;4960372;28;20035;-71
2022/01/10 07:21:19;;;;;;;27.73;17.05;;;;;;;;;;4962520;28;20037;-72
2022/01/10 07:23:45;;;;;;;25.95;16.17;;;;;;;;;;4966167;28;20026;-72
2022/01/10 07:26:11;;;;;;;34.90;18.52;;;;;;;;;;4962420;28;20050;-72
2022/01/10 07:28:37;;;;;;;32.33;17.63;;;;;;;;;;4965548;28;20043;-73
2022/01/10 07:31:03;;;;;;;29.98;17.13;;;;;;;;;;4962082;28;20034;-73
2022/01/10 07:33:29;;;;;;;30.15;17.27;;;;;;;;;;4965781;28;20471;-72
2022/01/10 07:35:55;;;;;;;28.55;17.05;;;;;;;;;;4960429;28;20039;-72
2022/01/10 07:38:21;;;;;;;29.95;16.77;;;;;;;;;;4963194;28;20069;-73
2022/01/10 07:40:47;;;;;;;31.77;17.25;;;;;;;;;;4969561;28;20396;-72
2022/01/10 07:43:13;;;;;;;24.73;15.68;;;;;;;;;;4969280;28;20034;-73
2022/01/10 07:45:39;;;;;;;31.08;16.85;;;;;;;;;;4963054;28;20480;-73
2022/01/10 07:48:06;;;;;;;24.10;15.57;;;;;;;;;;4955494;28;20093;-72
2022/01/10 07:50:32;;;;;;;26.88;15.48;;;;;;;;;;4961186;28;20023;-72
2022/01/10 07:52:58;;;;;;;25.80;15.75;;;;;;;;;;4967804;28;20038;-73
2022/01/10 07:55:24;;;;;;;28.05;16.10;;;;;;;;;;4966465;28;20500;-73
2022/01/10 07:57:50;;;;;;;31.52;17.40;;;;;;;;;;4963542;28;20038;-73
2022/01/10 08:00:16;;;;;;;30.92;17.25;;;;;;;;;;4967947;28;20061;-73
2022/01/10 08:02:42;;;;;;;28.67;17.55;;;;;;;;;;4961566;28;20415;-73
2022/01/10 08:05:09;;;;;;;34.05;20.25;;;;;;;;;;4960302;28;20058;-73
2022/01/10 08:07:35;;;;;;;36.55;19.17;;;;;;;;;;4968796;28;20027;-72
2022/01/10 08:10:02;;;;;;;33.10;17.80;;;;;;;;;;4962055;28;20043;-73
2022/01/10 08:12:29;;;;;;;30.20;15.77;;;;;;;;;;4969409;28;20023;-72
2022/01/10 08:14:55;;;;;;;27.30;16.73;;;;;;;;;;4968904;28;20054;-73
2022/01/10 08:17:21;;;;;;;32.33;17.00;;;;;;;;;;4972944;28;20030;-73
2022/01/10 08:19:47;;;;;;;29.70;17.10;;;;;;;;;;4970488;28;20039;-73
2022/01/10 08:22:13;;;;;;;30.63;16.17;;;;;;;;;;4965421;28;20051;-73
2022/01/10 08:24:39;;;;;;;25.42;15.65;;;;;;;;;;4965374;28;20027;-72
2022/01/10 08:27:05;;;;;;;25.27;14.85;;;;;;;;;;4968210;28;20022;-73
2022/01/10 08:29:31;;;;;;;31.92;18.00;;;;;;;;;;4968709;28;20031;-72
2022/01/10 08:31:57;;;;;;;31.02;17.25;;;;;;;;;;4968237;28;20097;-74
2022/01/10 08:34:26;;;;;;;26.75;16.73;;;;;;;;;;4957452;28;20482;-73
2022/01/10 08:36:54;;;;;;;27.40;17.13;;;;;;;;;;4967086;28;20502;-73
2022/01/10 08:39:20;;;;;;;37.33;26.42;;;;;;;;;;4960423;28;20487;-73
2022/01/10 08:41:46;;;;;;;28.27;17.10;;;;;;;;;;4964665;28;20067;-73
2022/01/10 08:44:14;;;;;;;26.85;15.93;;;;;;;;;;4964135;28;20069;-73
2022/01/10 08:46:40;;;;;;;27.25;16.30;;;;;;;;;;4961334;28;20033;-72
2022/01/10 08:49:06;;;;;;;30.08;16.75;;;;;;;;;;4960868;28;20498;-72
2022/01/10 08:51:34;;;;;;;27.55;17.45;;;;;;;;;;4963479;28;20031;-72
2022/01/10 08:54:01;;;;;;;29.30;16.65;;;;;;;;;;4965593;28;20038;-72
2022/01/10 08:56:27;;;;;;;33.63;17.95;;;;;;;;;;4967724;28;20031;-71
2022/01/10 08:58:53;;;;;;;30.83;16.27;;;;;;;;;;4967130;28;20145;-72
2022/01/10 09:01:21;;;;;;;36.90;20.65;;;;;;;;;;4966388;28;20475;-72
2022/01/10 09:03:47;;;;;;;36.65;19.00;;;;;;;;;;4962173;28;20027;-72
2022/01/10 09:06:13;;;;;;;32.75;19.77;;;;;;;;;;4955535;28;20351;-72
2022/01/10 09:08:40;;;;;;;29.23;17.20;;;;;;;;;;4963927;28;20398;-72
2022/01/10 09:11:06;;;;;;;29.83;17.55;;;;;;;;;;4966421;28;20038;-72
2022/01/10 09:13:33;;;;;;;28.45;17.45;;;;;;;;;;4958885;28;20038;-72
2022/01/10 09:16:02;;;;;;;28.55;16.63;;;;;;;;;;4953907;28;20030;-72
2022/01/10 09:18:28;;;;;;;27.42;17.20;;;;;;;;;;4958407;28;20049;-72
2022/01/10 09:20:55;;;;;;;26.50;16.27;;;;;;;;;;4965098;28;20038;-72
2022/01/10 09:23:21;;;;;;;27.25;15.57;;;;;;;;;;4961899;28;20030;-72
2022/01/10 09:25:49;;;;;;;30.38;15.57;;;;;;;;;;4968992;28;20019;-72
2022/01/10 09:28:15;;;;;;;25.23;15.70;;;;;;;;;;4963481;28;20053;-73
2022/01/10 09:30:41;;;;;;;30.30;19.17;;;;;;;;;;4963693;28;20385;-72
2022/01/10 09:33:07;;;;;;;27.52;16.80;;;;;;;;;;4956587;28;20166;-73
2022/01/10 09:35:33;;;;;;;26.65;15.55;;;;;;;;;;4963780;28;20121;-73
2022/01/10 09:37:59;;;;;;;26.63;15.85;;;;;;;;;;4965611;28;20035;-73
2022/01/10 09:40:25;;;;;;;23.38;15.35;;;;;;;;;;4967467;28;20046;-72
2022/01/10 09:42:51;;;;;;;27.75;14.50;;;;;;;;;;4967602;28;20027;-72
2022/01/10 09:45:17;;;;;;;29.35;16.23;;;;;;;;;;4962552;28;20102;-72
2022/01/10 09:47:43;;;;;;;27.05;15.32;;;;;;;;;;4954615;28;20038;-72
2022/01/10 09:50:10;;;;;;;27.13;16.20;;;;;;;;;;4963888;28;20070;-72
2022/01/10 09:52:38;;;;;;;25.92;15.43;;;;;;;;;;4972729;28;20030;-71
2022/01/10 09:55:04;;;;;;;27.42;15.52;;;;;;;;;;4967326;28;20054;-73
2022/01/10 09:57:30;;;;;;;30.70;16.40;;;;;;;;;;4971990;28;20031;-71
2022/01/10 09:59:56;;;;;;;25.65;14.82;;;;;;;;;;4969251;28;20038;-72
2022/01/10 10:02:29;;;;;;;25.42;15.05;;;;;;;;;;4962367;28;20045;-72
2022/01/10 10:04:55;;;;;;;30.75;15.73;;;;;;;;;;4965238;28;20027;-72
2022/01/10 10:07:23;;;;;;;26.95;17.45;;;;;;;;;;4967050;28;20035;-71
2022/01/10 10:09:49;;;;;;;32.05;17.38;;;;;;;;;;4970365;28;20046;-72
2022/01/10 10:12:15;;;;;;;24.73;15.77;;;;;;;;;;4971959;28;20098;-72
2022/01/10 10:14:41;;;;;;;26.90;16.42;;;;;;;;;;4964519;28;20031;-72
2022/01/10 10:17:13;;;;;;;27.88;16.08;;;;;;;;;;4966360;28;20082;-72
2022/01/10 10:19:41;;;;;;;28.73;15.82;;;;;;;;;;4970101;28;20050;-72
2022/01/10 10:22:07;;;;;;;26.25;16.00;;;;;;;;;;4966912;28;20368;-72
2022/01/10 10:24:33;;;;;;;29.15;15.55;;;;;;;;;;4954010;28;20041;-72
2022/01/10 10:26:59;;;;;;;29.17;16.33;;;;;;;;;;4961040;28;20034;-73
2022/01/10 10:29:25;;;;;;;27.38;16.65;;;;;;;;;;4965072;28;20027;-73
2022/01/10 10:31:55;;;;;;;30.00;16.75;;;;;;;;;;4965403;28;20022;-72
2022/01/10 10:34:27;;;;;;;34.35;20.98;;;;;;;;;;4967807;28;20031;-72
2022/01/10 10:37:06;;;;;;;28.45;15.90;;;;;;;;;;4968946;28;20049;-72
2022/01/10 10:39:34;;;;;;;29.58;15.30;;;;;;;;;;4963990;28;20042;-72
2022/01/10 10:42:01;;;;;;;26.55;15.50;;;;;;;;;;4958665;28;20062;-72
2022/01/10 10:44:28;;;;;;;30.83;16.10;;;;;;;;;;4964319;28;20030;-72
2022/01/10 10:46:54;;;;;;;29.15;15.43;;;;;;;;;;4977237;28;20719;-73
2022/01/10 10:49:21;;;;;;;30.55;15.60;;;;;;;;;;4968530;28;20035;-72
2022/01/10 10:51:51;;;;;;;25.75;15.05;;;;;;;;;;4968936;28;20760;-72
2022/01/10 10:54:18;;;;;;;33.22;16.25;;;;;;;;;;4968538;28;20034;-72
2022/01/10 10:56:44;;;;;;;31.13;15.98;;;;;;;;;;4970931;28;20027;-72
2022/01/10 10:59:11;;;;;;;36.38;18.48;;;;;;;;;;4969300;28;20062;-72
2022/01/10 11:01:38;;;;;;;33.70;17.88;;;;;;;;;;4962764;28;20055;-73
2022/01/10 11:04:04;;;;;;;25.65;15.38;;;;;;;;;;4966864;28;20043;-72
2022/01/10 11:06:34;;;;;;;24.83;15.25;;;;;;;;;;4970676;28;20027;-73
2022/01/10 11:09:02;;;;;;;29.02;14.63;;;;;;;;;;4967331;28;20057;-73
2022/01/10 11:11:28;;;;;;;28.23;14.23;;;;;;;;;;4968717;28;20057;-72
2022/01/10 11:13:58;;;;;;;22.45;13.70;;;;;;;;;;4966177;28;20030;-73
2022/01/10 11:16:24;;;;;;;29.65;14.52;;;;;;;;;;4969334;28;20122;-72
2022/01/10 11:18:50;;;;;;;32.28;15.15;;;;;;;;;;4955758;28;20062;-72
2022/01/10 11:21:17;;;;;;;28.63;14.27;;;;;;;;;;4956617;28;20046;-73
2022/01/10 11:23:45;;;;;;;26.83;13.93;;;;;;;;;;4966936;28;20026;-72
2022/01/10 11:26:11;;;;;;;27.52;13.98;;;;;;;;;;4971272;28;20126;-71
2022/01/10 11:28:50;;;;;;;28.17;14.32;;;;;;;;;;4963596;28;20117;-73
2022/01/10 11:31:26;;;;;;;26.37;13.80;;;;;;;;;;4880074;28;10000751;-73
2022/01/10 11:33:53;;;;;;;31.27;13.88;;;;;;;;;;4965096;28;20288;-73
2022/01/10 11:36:21;;;;;;;26.35;13.63;;;;;;;;;;4968221;28;20057;-73
2022/01/10 11:38:49;;;;;;;30.42;14.80;;;;;;;;;;4952102;28;20031;-73
2022/01/10 11:41:16;;;;;;;26.58;14.13;;;;;;;;;;4960082;28;20068;-74
2022/01/10 11:43:44;;;;;;;24.65;13.45;;;;;;;;;;4960985;28;20026;-73
2022/01/10 11:46:20;;;;;;;25.15;13.43;;;5.90;99.90;;;;;;4963367;28;20045;-72
2022/01/10 11:49:08;;;;;;;25.90;13.23;;;5.80;99.90;;;;;;4961563;28;20066;-71
2022/01/10 11:51:36;;;;;;;25.90;12.68;;;5.80;99.90;;;;;;4964118;28;20031;-72
2022/01/10 11:54:22;;;;;;;24.00;12.80;;;5.90;99.90;;;;;;4963658;28;20035;-71
2022/01/10 11:56:56;;;;;;;33.67;14.43;;;5.90;99.90;;;;;;4957353;28;20495;-72
2022/01/10 11:59:32;;;;;;;32.03;14.68;;;5.90;99.90;;;;;;4954619;28;20043;-71
2022/01/10 12:02:15;;;;;;;23.15;13.70;;;6.00;99.90;;;;;;4963891;28;20062;-71
2022/01/10 12:04:51;;;;;;;;;;;6.00;99.90;;;;;;4956639;28;20469;-72
2022/01/10 12:07:19;;;;;;;23.88;12.40;;;5.90;99.90;;;;;;4958906;28;20438;-72
2022/01/10 12:09:45;;;;;;;28.77;13.85;;;6.00;99.90;;;;;;4957867;28;20044;-71
2022/01/10 12:12:16;;;;;;;29.17;14.45;;;6.00;99.90;;;;;;4954803;28;20034;-71
2022/01/10 12:14:43;;;;;;;32.72;14.98;;;6.00;99.90;;;;;;4961139;28;20042;-72
2022/01/10 12:17:09;;;;;;;26.88;13.13;;;6.00;99.90;;;;;;4958291;28;20038;-71
2022/01/10 12:19:36;;;;;;;23.50;13.30;;;6.00;99.90;;;;;;4967489;28;20608;-72
2022/01/10 12:22:06;;;;;;;24.95;12.68;;;6.00;99.90;;;;;;4964958;28;20054;-71
2022/01/10 12:24:32;;;;;;;21.92;11.75;;;6.00;99.90;;;;;;4960592;28;20162;-71
2022/01/10 12:26:59;;;;;;;26.50;12.50;;;6.10;99.90;;;;;;4958323;28;20031;-71
2022/01/10 12:29:28;;;;;;;23.75;12.02;;;6.10;99.90;;;;;;4961301;28;20046;-72
2022/01/10 12:31:54;;;;;;;27.55;11.82;;;6.10;99.90;;;;;;4961366;28;20031;-71
2022/01/10 12:34:30;;;;;;;23.15;12.73;;;6.10;99.90;;;;;;5082153;28;22749;-71
2022/01/10 12:36:56;;;;;;;27.25;13.35;;;6.10;99.90;;;;;;5083643;28;20035;-72
2022/01/10 12:39:26;;;;;;;26.80;12.80;;;6.10;99.90;;;;;;5071721;28;20036;-72
2022/01/10 12:41:53;;;;;;;26.92;12.75;;;6.00;99.90;;;;;;5069977;28;20620;-71
2022/01/10 12:44:19;;;;;;;21.02;12.07;;;6.00;99.90;;;;;;5078660;28;20036;-72
2022/01/10 12:46:45;;;;;;;25.52;13.25;;;6.00;99.90;;;;;;5074757;28;20028;-71
2022/01/10 12:49:14;;;;;;;27.40;13.32;;;5.90;99.90;;;;;;5068504;28;20044;-72
2022/01/10 12:51:40;;;;;;;27.50;13.13;;;;;;;;;;5077191;28;21000;-73
2022/01/10 12:54:11;;;;;;;28.52;14.10;;;;;;;;;;5076622;28;20042;-74
2022/01/10 12:56:37;;;;;;;30.48;14.70;;;;;;;;;;5074182;28;20684;-74
2022/01/10 12:59:03;;;;;;;26.10;13.90;;;;;;;;;;5078750;28;20487;-74
2022/01/10 13:01:29;;;;;;;23.20;13.15;;;;;;;;;;5074466;28;20036;-74
2022/01/10 13:03:57;;;;;;;27.35;13.77;;;;;;;;;;5070788;28;20025;-73
2022/01/10 13:06:25;;;;;;;27.63;13.60;;;;;;;;;;5056589;28;20039;-74
2022/01/10 13:08:52;;;;;;;21.85;12.98;;;;;;;;;;5048628;28;20612;-72
2022/01/10 13:11:20;;;;;;;22.70;13.75;;;;;;;;;;5046899;28;20052;-72
2022/01/10 13:13:46;;;;;;;27.48;13.60;;;;;;;;;;5045408;28;20774;-72
2022/01/10 13:16:23;;;;;;;25.73;13.80;;;;;;;;;;5056349;28;20037;-75
2022/01/10 13:19:18;;;;;;;42.28;22.02;;;;;;;;;;5052258;28;20082;-71
2022/01/10 13:21:52;;;;;;;31.70;16.80;;;;;;;;;;5053250;28;20033;-71
2022/01/10 13:24:19;;;;;;;30.40;15.90;;;;;;;;;;5050712;28;20033;-71
2022/01/10 13:26:54;;;;;;;24.42;13.18;;;;;;;;;;5054836;28;20112;-71
2022/01/10 13:29:30;;;;;;;23.73;12.95;;;;;;;;;;5050890;28;20044;-71
2022/01/10 13:31:56;;;;;;;22.50;12.13;;;;;;;;;;5051473;28;20106;-71
2022/01/10 13:34:26;;;;;;;20.48;12.02;;;;;;;;;;5038630;28;20049;-71
2022/01/10 13:36:52;;;;;;;28.05;13.15;;;;;;;;;;5025145;28;20117;-72
2022/01/10 13:39:19;;;;;;;26.80;16.13;;;;;;;;;;5031566;28;20436;-73
2022/01/10 13:42:01;;;;;;;28.27;16.42;;;;;;;;;;5034785;28;20029;-71
2022/01/10 13:44:27;;;;;;;28.83;13.73;;;;;;;;;;5022848;28;20030;-71
2022/01/10 13:47:00;;;;;;;22.52;12.43;;;;;;;;;;5020189;28;20405;-73
2022/01/10 13:49:27;;;;;;;25.25;11.50;;;;;;;;;;5019766;28;20033;-73
2022/01/10 13:52:13;;;;;;;29.35;13.65;;;;;;;;;;5022098;28;20025;-74
2022/01/10 13:54:39;;;;;;;26.23;13.10;;;;;;;;;;5021893;28;20052;-73
2022/01/10 13:57:24;;;;;;;21.83;11.90;;;;;;;;;;5020406;28;20029;-74
2022/01/10 14:00:09;;;;;;;25.33;12.35;;;;;;;;;;5023006;28;20037;-73
2022/01/10 14:02:36;;;;;;;26.05;12.55;;;;;;;;;;5018276;28;20029;-74
2022/01/10 14:05:18;;;;;;;24.38;12.15;;;;;;;;;;5022160;28;20112;-74
2022/01/10 14:07:44;;;;;;;22.38;12.68;;;;;;;;;;5018992;28;20490;-73
2022/01/10 14:10:10;;;;;;;21.70;12.13;;;;;;;;;;5022285;28;20040;-73
2022/01/10 14:12:36;;;;;;;23.67;12.20;;;;;;;;;;5022173;28;20029;-72
2022/01/10 14:15:02;;;;;;;24.83;13.48;;;;;;;;;;5022003;28;20456;-72
2022/01/10 14:17:28;;;;;;;25.08;13.35;;;;;;;;;;5023150;28;20029;-72
2022/01/10 14:19:54;;;;;;;26.63;13.13;;;;;;;;;;5016746;28;20645;-72
2022/01/10 14:22:20;;;;;;;28.27;13.65;;;;;;;;;;5019011;28;20029;-73